Time;durP1;ratioP1;P1;durP2;ratioP2;P2;SDS_P1;SDS_P2;PMS_P1;PMS_P2;Temp;Humidity;BMP_temperature;BMP_pressure;BME280_temperature;BME280_humidity;BME280_pressure;Samples;Min_cycle;Max_cycle;Signal;HPM_P1;HPM_P2
2022/11/14 00:00:08;;;;;;;;;;;13.10;99.90;13.40;99541.00;;;;349348;27;82594;-96
2022/11/14 00:00:21;;;;;;;;;;;13.10;99.90;13.40;99542.00;;;;346559;28;85478;-96
2022/11/14 00:00:33;;;;;;;;;;;13.10;99.90;13.40;99536.00;;;;346308;28;82523;-96
2022/11/14 00:00:45;;;;;;;;;;;13.10;99.90;13.40;99539.00;;;;344946;28;84969;-96
2022/11/14 00:00:57;;;;;;;;;;;13.00;99.90;13.40;99549.00;;;;346484;28;82541;-96
2022/11/14 00:01:10;;;;;;;;;;;13.10;99.90;13.40;99543.00;;;;346768;28;83237;-95
2022/11/14 00:01:22;;;;;;;;;;;13.10;99.90;13.40;99541.00;;;;345544;28;82549;-96
2022/11/14 00:01:34;;;;;;;;;;;13.10;99.90;13.40;99539.00;;;;346713;28;84894;-96
2022/11/14 00:01:45;;;;;;;;;;;13.10;99.90;13.40;99546.00;;;;346425;28;82604;-96
2022/11/14 00:01:57;;;;;;;;;;;13.10;99.90;13.30;99544.00;;;;346327;28;86055;-95
2022/11/14 00:02:09;;;;;;;;;;;13.10;99.90;13.40;99534.00;;;;346745;28;82648;-96
2022/11/14 00:02:21;;;;;;;;;;;13.10;99.90;13.40;99542.00;;;;346717;28;86445;-95
2022/11/14 00:02:34;;;;;;;;;;;13.10;99.90;13.40;99545.00;;;;347487;28;82440;-90
2022/11/14 00:02:46;;;;;;;;;;;13.10;99.90;13.40;99538.00;;;;346499;28;82546;-91
2022/11/14 00:02:59;;;;;;;;;;;13.10;99.90;13.40;99548.00;;;;347648;28;82396;-90
2022/11/14 00:03:12;;;;;;;;;;;13.10;99.90;13.40;99546.00;;;;345002;28;83811;-90
2022/11/14 00:03:24;;;;;;;;;;;13.10;99.90;13.40;99533.00;;;;346419;28;82506;-93
2022/11/14 00:03:36;;;;;;;;;;;13.10;99.90;13.40;99546.00;;;;347553;28;84360;-89
2022/11/14 00:03:49;;;;;;;;;;;13.10;99.90;13.50;99533.00;;;;346149;28;82397;-93
2022/11/14 00:04:02;;;;;;;;;;;13.10;99.90;13.50;99542.00;;;;346257;28;84322;-85
2022/11/14 00:04:14;;;;;;;;;;;13.10;99.90;13.50;99542.00;;;;348896;28;82586;-95
2022/11/14 00:04:27;;;;;;;;;;;13.10;99.90;13.50;99541.00;;;;346059;28;85073;-92
2022/11/14 00:04:40;;;;;;;;;;;13.10;99.90;13.50;99543.00;;;;347482;28;82513;-90
2022/11/14 00:04:54;;;;;;;;;;;13.10;99.90;13.50;99538.00;;;;347450;28;86847;-93
2022/11/14 00:05:07;;;;;;;;;;;13.10;99.90;13.50;99546.00;;;;347804;28;82588;-93
2022/11/14 00:05:19;;;;;;;;;;;13.10;99.90;13.50;99542.00;;;;345478;28;85423;-95
2022/11/14 00:05:31;;;;;;;;;;;13.10;99.90;13.50;99536.00;;;;343985;28;82700;-96
2022/11/14 00:05:44;;;;;;;;;;;13.10;99.90;13.50;99527.00;;;;345206;28;86372;-96
2022/11/14 00:05:56;;;;;;;;;;;13.10;99.90;13.50;99536.00;;;;346657;28;82253;-96
2022/11/14 00:06:08;;;;;;;;;;;13.10;99.90;13.50;99537.00;;;;343959;28;85622;-96
2022/11/14 00:06:20;;;;;;;;;;;13.20;99.90;13.50;99541.00;;;;344589;28;82326;-96
2022/11/14 00:06:32;;;;;;;;;;;13.10;99.90;13.50;99541.00;;;;345278;28;82976;-96
2022/11/14 00:06:44;;;;;;;;;;;13.10;99.90;13.50;99542.00;;;;347014;28;82245;-96
2022/11/14 00:06:56;;;;;;;;;;;13.20;99.90;13.50;99541.00;;;;344240;28;83254;-96
2022/11/14 00:07:10;;;;;;;;;;;13.10;99.90;13.50;99534.00;;;;345324;28;82550;-96
2022/11/14 00:07:22;;;;;;;;;;;13.20;99.90;13.50;99542.00;;;;348724;28;82671;-96
2022/11/14 00:07:34;;;;;;;;;;;13.20;99.90;13.50;99537.00;;;;348422;28;82426;-96
2022/11/14 00:07:47;;;;;;;;;;;13.20;99.90;13.50;99540.00;;;;346574;28;83082;-94
2022/11/14 00:07:59;;;;;;;;;;;13.20;99.90;13.50;99530.00;;;;346565;28;82565;-90
2022/11/14 00:08:15;;;;;;;;;;;13.20;99.90;13.50;99532.00;;;;349008;28;86853;-91
2022/11/14 00:08:27;;;;;;;;;;;13.20;99.90;13.50;99532.00;;;;350154;27;82558;-92
2022/11/14 00:08:40;;;;;;;;;;;13.20;99.90;13.50;99529.00;;;;346289;28;83185;-93
2022/11/14 00:08:52;;;;;;;;;;;13.20;99.90;13.60;99537.00;;;;346417;28;82276;-92
2022/11/14 00:09:04;;;;;;;;;;;13.20;99.90;13.60;99533.00;;;;349169;28;82884;-92
2022/11/14 00:09:17;;;;;;;;;;;13.20;99.90;13.50;99531.00;;;;345857;28;82479;-96
2022/11/14 00:09:30;;;;;;;;;;;13.20;99.90;13.50;99536.00;;;;346823;28;85462;-95
2022/11/14 00:09:43;;;;;;;;;;;13.20;99.90;13.50;99535.00;;;;346897;28;82623;-96
2022/11/14 00:09:57;;;;;;;;;;;13.20;99.90;13.50;99538.00;;;;348172;28;86125;-96
2022/11/14 00:10:09;;;;;;;;;;;13.20;99.90;13.50;99542.00;;;;349777;27;82542;-96
2022/11/14 00:10:21;;;;;;;;;;;13.10;99.90;13.50;99537.00;;;;346654;28;85838;-96
2022/11/14 00:10:33;;;;;;;;;;;13.20;99.90;13.50;99534.00;;;;344328;28;82384;-96
2022/11/14 00:10:46;;;;;;;;;;;13.20;99.90;13.50;99538.00;;;;346884;28;83100;-91
2022/11/14 00:10:59;;;;;;;;;;;13.20;99.90;13.50;99537.00;;;;349945;27;82586;-93
2022/11/14 00:11:11;;;;;;;;;;;13.20;99.90;13.50;99531.00;;;;350157;27;85663;-93
2022/11/14 00:11:23;;;;;;;;;;;13.20;99.90;13.50;99540.00;;;;347274;28;82472;-96
2022/11/14 00:11:36;;;;;;;;;;;13.20;99.90;13.60;99532.00;;;;349007;28;82414;-93
2022/11/14 00:11:48;;;;;;;;;;;13.20;99.90;13.60;99540.00;;;;345905;28;82654;-95
2022/11/14 00:11:59;;;;;;;;;;;13.20;99.90;13.60;99536.00;;;;347323;28;85879;-94
2022/11/14 00:12:11;;;;;;;;;;;13.20;99.90;13.60;99543.00;;;;344891;28;82657;-93
2022/11/14 00:12:23;;;;;;;;;;;13.20;99.90;13.60;99536.00;;;;344365;28;85521;-95
2022/11/14 00:12:35;;;;;;;;;;;13.20;99.90;13.50;99533.00;;;;348780;28;82586;-95
2022/11/14 00:12:47;;;;;;;;;;;13.20;99.90;13.50;99530.00;;;;346201;28;84365;-94
2022/11/14 00:12:58;;;;;;;;;;;13.20;99.90;13.50;99534.00;;;;349175;28;82569;-91
2022/11/14 00:13:10;;;;;;;;;;;13.20;99.90;13.50;99531.00;;;;347668;28;82382;-92
2022/11/14 00:13:22;;;;;;;;;;;13.20;99.90;13.50;99538.00;;;;346370;28;82540;-93
2022/11/14 00:13:34;;;;;;;;;;;13.20;99.90;13.60;99536.00;;;;347530;28;84019;-92
2022/11/14 00:13:46;;;;;;;;;;;13.20;99.90;13.60;99531.00;;;;347190;28;82466;-95
2022/11/14 00:13:58;;;;;;;;;;;13.20;99.90;13.50;99532.00;;;;346092;28;86164;-93
2022/11/14 00:14:11;;;;;;;;;;;13.20;99.90;13.50;99536.00;;;;347421;28;82468;-92
2022/11/14 00:14:24;;;;;;;;;;;13.20;99.90;13.50;99527.00;;;;345960;28;85369;-94
2022/11/14 00:14:36;;;;;;;;;;;13.20;99.90;13.60;99534.00;;;;345832;28;82602;-95
2022/11/14 00:14:48;;;;;;;;;;;13.20;99.90;13.60;99529.00;;;;348378;28;85628;-95
2022/11/14 00:15:00;;;;;;;;;;;13.20;99.90;13.60;99536.00;;;;346068;28;82499;-95
2022/11/14 00:15:12;;;;;;;;;;;13.20;99.90;13.60;99528.00;;;;346002;28;85354;-91
2022/11/14 00:15:24;;;;;;;;;;;13.20;99.90;13.60;99535.00;;;;347369;28;82648;-95
2022/11/14 00:15:37;;;;;;;;;;;13.20;99.90;13.60;99527.00;;;;345919;28;86052;-86
2022/11/14 00:15:49;;;;;;;;;;;13.20;99.90;13.60;99531.00;;;;343499;28;82628;-95
2022/11/14 00:16:01;;;;;;;;;;;13.20;99.90;13.60;99531.00;;;;347546;28;83144;-96
2022/11/14 00:16:13;;;;;;;;;;;13.20;99.90;13.60;99541.00;;;;345920;28;82589;-94
2022/11/14 00:16:27;;;;;;;;;;;13.20;99.90;13.60;99532.00;;;;344232;28;85007;-94
2022/11/14 00:16:39;;;;;;;;;;;13.20;99.90;13.60;99523.00;;;;344054;28;82210;-95
2022/11/14 00:16:51;;;;;;;;;;;13.20;99.90;13.60;99533.00;;;;343585;28;84425;-96
2022/11/14 00:17:03;;;;;;;;;;;13.20;99.90;13.70;99537.00;;;;344026;28;82537;-96
2022/11/14 00:17:15;;;;;;;;;;;13.20;99.90;13.60;99541.00;;;;345227;28;84037;-96
2022/11/14 00:17:27;;;;;;;;;;;13.30;99.90;13.60;99543.00;;;;346729;28;82437;-96
2022/11/14 00:17:39;;;;;;;;;;;13.20;99.90;13.60;99534.00;;;;347647;28;85894;-95
2022/11/14 00:17:50;;;;;;;;;;;13.20;99.90;13.60;99531.00;;;;343502;28;82670;-96
2022/11/14 00:18:02;;;;;;;;;;;13.30;99.90;13.60;99542.00;;;;343559;28;84191;-96
2022/11/14 00:18:15;;;;;;;;;;;13.20;99.90;13.60;99535.00;;;;347810;28;82442;-96
2022/11/14 00:18:28;;;;;;;;;;;13.30;99.90;13.60;99533.00;;;;344593;28;85848;-95
2022/11/14 00:18:41;;;;;;;;;;;13.30;99.90;13.60;99535.00;;;;343863;28;82480;-96
2022/11/14 00:18:53;;;;;;;;;;;13.30;99.90;13.60;99546.00;;;;343441;28;84057;-96
2022/11/14 00:19:05;;;;;;;;;;;13.30;99.90;13.60;99531.00;;;;346105;28;82660;-95
2022/11/14 00:19:17;;;;;;;;;;;13.30;99.90;13.60;99523.00;;;;346523;28;83332;-94
2022/11/14 00:19:29;;;;;;;;;;;13.20;99.90;13.60;99535.00;;;;346307;28;82581;-95
2022/11/14 00:19:41;;;;;;;;;;;13.30;99.90;13.60;99530.00;;;;347458;28;84759;-96
2022/11/14 00:19:53;;;;;;;;;;;13.30;99.90;13.60;99537.00;;;;346371;28;82517;-95
2022/11/14 00:20:09;;;;;;;;;;;13.30;99.90;13.60;99542.00;;;;345167;28;84452;-96
2022/11/14 00:20:22;;;;;;;;;;;13.30;99.90;13.60;99540.00;;;;345154;28;82515;-96
2022/11/14 00:20:35;;;;;;;;;;;13.30;99.90;13.60;99533.00;;;;346932;28;82340;-96
2022/11/14 00:20:48;;;;;;;;;;;13.30;99.90;13.60;99542.00;;;;346124;28;82553;-96
2022/11/14 00:21:00;;;;;;;;;;;13.30;99.90;13.60;99539.00;;;;346513;28;82342;-96
2022/11/14 00:21:12;;;;;;;;;;;13.30;99.90;13.60;99531.00;;;;346286;28;82554;-95
2022/11/14 00:21:24;;;;;;;;;;;13.30;99.90;13.60;99543.00;;;;345173;28;83165;-95
2022/11/14 00:21:37;;;;;;;;;;;13.20;99.90;13.60;99533.00;;;;346454;28;82562;-95
2022/11/14 00:21:51;;;;;;;;;;;13.30;99.90;13.60;99532.00;;;;346440;28;83023;-96
2022/11/14 00:22:04;;;;;;;;;;;13.30;99.90;13.50;99534.00;;;;346775;28;82391;-95
2022/11/14 00:22:16;;;;;;;;;;;13.30;99.90;13.50;99532.00;;;;344585;28;84091;-95
2022/11/14 00:22:28;;;;;;;;;;;13.30;99.90;13.50;99532.00;;;;342404;28;82669;-96
2022/11/14 00:22:43;;;;;;;;;;;13.20;99.90;13.60;99535.00;;;;341191;28;83283;-96
2022/11/14 00:22:56;;;;;;;;;;;13.20;99.90;13.60;99537.00;;;;342663;28;82503;-95
2022/11/14 00:23:08;;;;;;;;;;;13.30;99.90;13.50;99527.00;;;;344157;28;82497;-96
2022/11/14 00:23:21;;;;;;;;;;;13.20;99.90;13.50;99535.00;;;;344649;28;82214;-96
2022/11/14 00:23:34;;;;;;;;;;;13.20;99.90;13.50;99537.00;;;;344380;28;84967;-96
2022/11/14 00:23:46;;;;;;;;;;;13.20;99.90;13.50;99535.00;;;;344368;28;82383;-95
2022/11/14 00:23:58;;;;;;;;;;;13.20;99.90;13.50;99538.00;;;;346076;28;83072;-96
2022/11/14 00:24:10;;;;;;;;;;;13.20;99.90;13.50;99534.00;;;;344493;28;82560;-96
2022/11/14 00:24:23;;;;;;;;;;;13.20;99.90;13.50;99537.00;;;;345809;28;84362;-96
2022/11/14 00:24:35;;;;;;;;;;;13.20;99.90;13.50;99524.00;;;;345839;28;82553;-96
2022/11/14 00:24:47;;;;;;;;;;;13.20;99.90;13.50;99532.00;;;;345566;28;84950;-96
2022/11/14 00:25:01;;;;;;;;;;;13.20;99.90;13.50;99529.00;;;;345504;28;82698;-96
2022/11/14 00:25:13;;;;;;;;;;;13.20;99.90;13.50;99532.00;;;;345546;28;84390;-96
2022/11/14 00:25:25;;;;;;;;;;;13.20;99.90;13.50;99532.00;;;;342962;28;82430;-95
2022/11/14 00:25:37;;;;;;;;;;;13.20;99.90;13.50;99535.00;;;;344304;28;84462;-95
2022/11/14 00:25:49;;;;;;;;;;;13.20;99.90;13.50;99531.00;;;;345742;28;82592;-96
2022/11/14 00:26:01;;;;;;;;;;;13.20;99.90;13.50;99529.00;;;;344356;28;82475;-96
2022/11/14 00:26:14;;;;;;;;;;;13.20;99.90;13.50;99528.00;;;;345789;28;83163;-96
2022/11/14 00:26:25;;;;;;;;;;;13.20;99.90;13.50;99528.00;;;;345742;28;84917;-96
2022/11/14 00:26:37;;;;;;;;;;;13.20;99.90;13.50;99536.00;;;;344456;28;82529;-96
2022/11/14 00:26:50;;;;;;;;;;;13.20;99.90;13.50;99529.00;;;;343650;28;86273;-95
2022/11/14 00:27:02;;;;;;;;;;;13.20;99.90;13.50;99526.00;;;;344632;28;82570;-96
2022/11/14 00:27:17;;;;;;;;;;;13.20;99.90;13.50;99526.00;;;;344639;28;83228;-96
2022/11/14 00:27:29;;;;;;;;;;;13.20;99.90;13.50;99524.00;;;;344285;28;82566;-96
2022/11/14 00:27:42;;;;;;;;;;;13.20;99.90;13.50;99527.00;;;;343193;28;82325;-95
2022/11/14 00:27:56;;;;;;;;;;;13.20;99.90;13.50;99526.00;;;;343073;28;82374;-95
2022/11/14 00:28:09;;;;;;;;;;;13.20;99.90;13.50;99525.00;;;;345483;28;86461;-96
2022/11/14 00:28:21;;;;;;;;;;;13.20;99.90;13.50;99517.00;;;;345194;28;82577;-96
2022/11/14 00:28:35;;;;;;;;;;;13.20;99.90;13.50;99515.00;;;;345482;28;85534;-95
2022/11/14 00:28:50;;;;;;;;;;;13.10;99.90;13.50;99527.00;;;;344285;28;82546;-96
2022/11/14 00:29:02;;;;;;;;;;;13.20;99.90;13.50;99527.00;;;;345387;28;84939;-95
2022/11/14 00:29:15;;;;;;;;;;;13.20;99.90;13.50;99531.00;;;;346210;28;82632;-95
2022/11/14 00:29:27;;;;;;;;;;;13.20;99.90;13.50;99527.00;;;;344287;28;83072;-95
2022/11/14 00:29:38;;;;;;;;;;;13.20;99.90;13.60;99528.00;;;;344373;28;82578;-95
2022/11/14 00:29:54;;;;;;;;;;;13.20;99.90;13.50;99513.00;;;;345368;28;82494;-95
2022/11/14 00:30:07;;;;;;;;;;;13.20;99.90;13.60;99523.00;;;;346184;28;82604;-94
2022/11/14 00:30:19;;;;;;;;;;;13.20;99.90;13.60;99517.00;;;;343079;28;83157;-95
2022/11/14 00:30:33;;;;;;;;;;;13.20;99.90;13.60;99532.00;;;;344532;28;82612;-96
2022/11/14 00:30:46;;;;;;;;;;;13.20;99.90;13.50;99527.00;;;;344753;28;85363;-96
2022/11/14 00:30:58;;;;;;;;;;;13.20;99.90;13.50;99518.00;;;;346251;28;82426;-96
2022/11/14 00:31:10;;;;;;;;;;;13.20;99.90;13.50;99521.00;;;;343324;28;82838;-96
2022/11/14 00:31:22;;;;;;;;;;;13.20;99.90;13.50;99520.00;;;;344552;28;82470;-96
2022/11/14 00:31:34;;;;;;;;;;;13.20;99.90;13.50;99514.00;;;;345940;28;82943;-96
2022/11/14 00:31:46;;;;;;;;;;;13.20;99.90;13.50;99507.00;;;;347099;28;82591;-95
2022/11/14 00:31:59;;;;;;;;;;;13.20;99.90;13.50;99514.00;;;;345831;28;84276;-96
2022/11/14 00:32:11;;;;;;;;;;;13.20;99.90;13.50;99512.00;;;;345787;28;82767;-96
2022/11/14 00:32:23;;;;;;;;;;;13.20;99.90;13.50;99515.00;;;;344359;28;84385;-96
2022/11/14 00:32:36;;;;;;;;;;;13.20;99.90;13.50;99519.00;;;;344567;28;82541;-96
2022/11/14 00:32:48;;;;;;;;;;;13.20;99.90;13.50;99522.00;;;;345855;28;83322;-96
2022/11/14 00:33:00;;;;;;;;;;;13.20;99.90;13.50;99518.00;;;;346111;28;82315;-95
2022/11/14 00:33:12;;;;;;;;;;;13.20;99.90;13.50;99520.00;;;;343091;28;84997;-96
2022/11/14 00:33:31;;;;;;;;;;;13.20;99.90;13.50;99515.00;;;;344313;28;82555;-96
2022/11/14 00:33:44;;;;;;;;;;;13.20;99.90;13.50;99519.00;;;;343727;28;85072;-95
2022/11/14 00:33:56;;;;;;;;;;;13.20;99.90;13.50;99520.00;;;;342879;28;82585;-96
2022/11/14 00:34:08;;;;;;;;;;;13.20;99.90;13.50;99510.00;;;;342689;28;84402;-95
2022/11/14 00:34:20;;;;;;;;;;;13.20;99.90;13.50;99516.00;;;;343989;28;82548;-95
2022/11/14 00:34:33;;;;;;;;;;;13.20;99.90;13.50;99510.00;;;;344054;28;84607;-96
2022/11/14 00:34:44;;;;;;;;;;;13.20;99.90;13.50;99512.00;;;;345679;28;82552;-96
2022/11/14 00:34:58;;;;;;;;;;;13.20;99.90;13.50;99514.00;;;;345719;28;83313;-95
2022/11/14 00:35:11;;;;;;;;;;;13.20;99.90;13.40;99503.00;;;;345923;28;82631;-96
2022/11/14 00:35:23;;;;;;;;;;;13.20;99.90;13.50;99506.00;;;;345923;28;83243;-96
2022/11/14 00:35:35;;;;;;;;;;;13.10;99.90;13.50;99509.00;;;;342780;28;82544;-95
2022/11/14 00:35:54;;;;;;;;;;;13.20;99.90;13.50;99518.00;;;;343132;28;82472;-96
2022/11/14 00:36:08;;;;;;;;;;;13.20;99.90;13.50;99514.00;;;;344611;28;82443;-96
2022/11/14 00:36:20;;;;;;;;;;;13.20;99.90;13.50;99517.00;;;;344535;28;84337;-95
2022/11/14 00:36:32;;;;;;;;;;;13.20;99.90;13.50;99527.00;;;;347039;28;82657;-95
2022/11/14 00:36:46;;;;;;;;;;;13.20;99.90;13.50;99512.00;;;;345685;28;82933;-96
2022/11/14 00:36:59;;;;;;;;;;;13.10;99.90;13.50;99517.00;;;;344261;28;82607;-96
2022/11/14 00:37:12;;;;;;;;;;;13.20;99.90;13.40;99504.00;;;;346759;28;83175;-96
2022/11/14 00:37:24;;;;;;;;;;;13.20;99.90;13.50;99511.00;;;;345595;28;82594;-96
2022/11/14 00:37:40;;;;;;;;;;;13.20;99.90;13.50;99512.00;;;;345765;28;83189;-96
2022/11/14 00:37:52;;;;;;;;;;;13.20;99.90;13.50;99506.00;;;;344181;28;82586;-96
2022/11/14 00:38:04;;;;;;;;;;;13.20;99.90;13.50;99516.00;;;;342973;28;84103;-96
2022/11/14 00:38:16;;;;;;;;;;;13.20;99.90;13.50;99507.00;;;;344530;28;82431;-94
2022/11/14 00:38:28;;;;;;;;;;;13.10;99.90;13.50;99512.00;;;;344416;28;83869;-96
2022/11/14 00:38:41;;;;;;;;;;;13.10;99.90;13.50;99517.00;;;;347053;28;82433;-95
2022/11/14 00:38:56;;;;;;;;;;;13.10;99.90;13.40;99500.00;;;;344347;28;85075;-96
2022/11/14 00:39:12;;;;;;;;;;;13.20;99.90;13.50;99509.00;;;;341829;28;82529;-96
2022/11/14 00:39:24;;;;;;;;;;;13.10;99.90;13.40;99509.00;;;;342910;28;82434;-96
2022/11/14 00:39:37;;;;;;;;;;;13.20;99.90;13.40;99506.00;;;;345765;28;82715;-95
2022/11/14 00:39:49;;;;;;;;;;;13.20;99.90;13.40;99511.00;;;;345598;28;84305;-96
2022/11/14 00:40:01;;;;;;;;;;;13.10;99.90;13.50;99514.00;;;;346228;28;82256;-96
2022/11/14 00:40:13;;;;;;;;;;;13.10;99.90;13.50;99500.00;;;;345215;28;84393;-95
2022/11/14 00:40:26;;;;;;;;;;;13.20;99.90;13.50;99512.00;;;;343245;28;82612;-96
2022/11/14 00:40:38;;;;;;;;;;;13.20;99.90;13.50;99502.00;;;;344090;28;84056;-96
2022/11/14 00:40:50;;;;;;;;;;;13.10;99.90;13.50;99508.00;;;;343931;28;82560;-95
2022/11/14 00:41:04;;;;;;;;;;;13.10;99.90;13.50;99509.00;;;;345729;28;82949;-96
2022/11/14 00:41:17;;;;;;;;;;;13.10;99.90;13.50;99514.00;;;;344368;28;82638;-96
2022/11/14 00:41:29;;;;;;;;;;;13.10;99.90;13.40;99515.00;;;;344523;28;84383;-96
2022/11/14 00:41:41;;;;;;;;;;;13.10;99.90;13.40;99513.00;;;;342215;28;82662;-96
2022/11/14 00:41:53;;;;;;;;;;;13.10;99.90;13.40;99518.00;;;;346038;28;83189;-96
2022/11/14 00:42:05;;;;;;;;;;;13.10;99.90;13.40;99519.00;;;;344515;28;82201;-96
2022/11/14 00:42:18;;;;;;;;;;;13.10;99.90;13.40;99507.00;;;;347158;28;83161;-95
2022/11/14 00:42:31;;;;;;;;;;;13.10;99.90;13.40;99509.00;;;;344607;28;82640;-96
2022/11/14 00:42:43;;;;;;;;;;;13.10;99.90;13.40;99501.00;;;;344917;28;82504;-96
2022/11/14 00:42:55;;;;;;;;;;;13.10;99.90;13.40;99512.00;;;;344247;28;82562;-94
2022/11/14 00:43:08;;;;;;;;;;;13.10;99.90;13.40;99514.00;;;;344765;28;83504;-96
2022/11/14 00:43:20;;;;;;;;;;;13.10;99.90;13.40;99506.00;;;;344262;28;82521;-96
2022/11/14 00:43:33;;;;;;;;;;;13.10;99.90;13.40;99507.00;;;;343393;28;82493;-94
2022/11/14 00:43:46;;;;;;;;;;;13.10;99.90;13.40;99507.00;;;;344493;28;82610;-95
2022/11/14 00:43:58;;;;;;;;;;;13.10;99.90;13.40;99515.00;;;;344773;28;83072;-96
2022/11/14 00:44:10;;;;;;;;;;;13.10;99.90;13.40;99499.00;;;;347467;28;82478;-96
2022/11/14 00:44:22;;;;;;;;;;;13.10;99.90;13.40;99505.00;;;;346034;28;82409;-95
2022/11/14 00:44:34;;;;;;;;;;;13.10;99.90;13.50;99509.00;;;;344396;28;82565;-95
2022/11/14 00:44:46;;;;;;;;;;;13.10;99.90;13.50;99507.00;;;;343302;28;83506;-96
2022/11/14 00:45:00;;;;;;;;;;;13.10;99.90;13.50;99505.00;;;;345972;28;82390;-95
2022/11/14 00:45:13;;;;;;;;;;;13.10;99.90;13.50;99498.00;;;;344786;28;82329;-95
2022/11/14 00:45:27;;;;;;;;;;;13.10;99.90;13.40;99499.00;;;;344510;28;82632;-96
2022/11/14 00:45:39;;;;;;;;;;;13.10;99.90;13.40;99503.00;;;;344692;28;84395;-95
2022/11/14 00:45:51;;;;;;;;;;;13.10;99.90;13.40;99497.00;;;;343174;28;82584;-95
2022/11/14 00:46:04;;;;;;;;;;;13.10;99.90;13.50;99501.00;;;;344924;28;82439;-95
2022/11/14 00:46:16;;;;;;;;;;;13.10;99.90;13.50;99504.00;;;;346265;28;82562;-93
2022/11/14 00:46:28;;;;;;;;;;;13.10;99.90;13.50;99507.00;;;;344936;28;85390;-92
2022/11/14 00:46:40;;;;;;;;;;;13.10;99.90;13.50;99510.00;;;;345086;28;82606;-96
2022/11/14 00:46:52;;;;;;;;;;;13.10;99.90;13.50;99508.00;;;;344885;28;84956;-96
2022/11/14 00:47:04;;;;;;;;;;;13.10;99.90;13.40;99500.00;;;;345319;28;82215;-92
2022/11/14 00:47:18;;;;;;;;;;;13.10;99.90;13.40;99497.00;;;;347633;28;83902;-96
2022/11/14 00:47:29;;;;;;;;;;;13.10;99.90;13.50;99495.00;;;;344919;28;82377;-96
2022/11/14 00:47:42;;;;;;;;;;;13.10;99.90;13.50;99506.00;;;;346337;28;84415;-96
2022/11/14 00:47:54;;;;;;;;;;;13.10;99.90;13.50;99505.00;;;;344587;28;82391;-96
2022/11/14 00:48:06;;;;;;;;;;;13.10;99.90;13.50;99509.00;;;;344362;28;83091;-95
2022/11/14 00:48:18;;;;;;;;;;;13.10;99.90;13.50;99501.00;;;;346177;28;82575;-95
2022/11/14 00:48:30;;;;;;;;;;;13.10;99.90;13.40;99501.00;;;;347375;28;83656;-95
2022/11/14 00:48:43;;;;;;;;;;;13.10;99.90;13.50;99502.00;;;;344986;28;82446;-96
2022/11/14 00:48:57;;;;;;;;;;;13.10;99.90;13.50;99492.00;;;;344823;28;83179;-96
2022/11/14 00:49:09;;;;;;;;;;;13.10;99.90;13.50;99496.00;;;;346238;28;82496;-96
2022/11/14 00:49:22;;;;;;;;;;;13.10;99.90;13.40;99497.00;;;;345911;28;85533;-96
2022/11/14 00:49:34;;;;;;;;;;;13.10;99.90;13.40;99499.00;;;;345047;28;82337;-96
2022/11/14 00:49:47;;;;;;;;;;;13.10;99.90;13.40;99499.00;;;;346246;28;83213;-96
2022/11/14 00:49:58;;;;;;;;;;;13.10;99.90;13.40;99498.00;;;;346475;28;82147;-95
2022/11/14 00:50:11;;;;;;;;;;;13.10;99.90;13.40;99504.00;;;;346970;28;85224;-96
2022/11/14 00:50:23;;;;;;;;;;;13.10;99.90;13.40;99491.00;;;;347482;28;82489;-96
2022/11/14 00:50:36;;;;;;;;;;;13.10;99.90;13.40;99492.00;;;;347196;28;85193;-96
2022/11/14 00:50:50;;;;;;;;;;;13.10;99.90;13.40;99492.00;;;;344590;28;82607;-96
2022/11/14 00:51:02;;;;;;;;;;;13.10;99.90;13.40;99491.00;;;;344490;28;84426;-95
2022/11/14 00:51:14;;;;;;;;;;;13.10;99.90;13.40;99496.00;;;;344546;28;82578;-96
2022/11/14 00:51:27;;;;;;;;;;;13.10;99.90;13.40;99490.00;;;;344373;28;83516;-95
2022/11/14 00:51:38;;;;;;;;;;;13.10;99.90;13.40;99501.00;;;;347009;28;82634;-96
2022/11/14 00:51:51;;;;;;;;;;;13.10;99.90;13.50;99497.00;;;;344311;28;82941;-96
2022/11/14 00:52:04;;;;;;;;;;;13.10;99.90;13.50;99496.00;;;;345376;28;82559;-96
2022/11/14 00:52:16;;;;;;;;;;;13.10;99.90;13.50;99503.00;;;;346017;28;82533;-96
2022/11/14 00:52:29;;;;;;;;;;;13.10;99.90;13.50;99497.00;;;;345688;28;82432;-96
2022/11/14 00:52:41;;;;;;;;;;;13.10;99.90;13.50;99483.00;;;;345791;28;83154;-95
2022/11/14 00:52:54;;;;;;;;;;;13.10;99.90;13.50;99493.00;;;;344693;28;82564;-95
2022/11/14 00:53:06;;;;;;;;;;;13.10;99.90;13.50;99492.00;;;;347286;28;82495;-96
2022/11/14 00:53:18;;;;;;;;;;;13.10;99.90;13.50;99497.00;;;;345395;28;82266;-96
2022/11/14 00:53:30;;;;;;;;;;;13.10;99.90;13.40;99493.00;;;;345149;28;83155;-96
2022/11/14 00:53:42;;;;;;;;;;;13.10;99.90;13.40;99488.00;;;;343391;28;82594;-96
2022/11/14 00:53:54;;;;;;;;;;;13.10;99.90;13.40;99488.00;;;;345272;28;84100;-95
2022/11/14 00:54:08;;;;;;;;;;;13.10;99.90;13.50;99502.00;;;;345538;28;82370;-96
2022/11/14 00:54:20;;;;;;;;;;;13.10;99.90;13.50;99497.00;;;;344919;28;84876;-96
2022/11/14 00:54:32;;;;;;;;;;;13.10;99.90;13.50;99497.00;;;;345292;28;82290;-95
2022/11/14 00:54:48;;;;;;;;;;;13.10;99.90;13.40;99488.00;;;;344976;28;85160;-96
2022/11/14 00:55:00;;;;;;;;;;;13.10;99.90;13.40;99494.00;;;;346684;28;82454;-96
2022/11/14 00:55:12;;;;;;;;;;;13.10;99.90;13.40;99491.00;;;;347921;28;84198;-95
2022/11/14 00:55:24;;;;;;;;;;;13.10;99.90;13.40;99487.00;;;;345078;28;82397;-96
2022/11/14 00:55:36;;;;;;;;;;;13.10;99.90;13.40;99494.00;;;;344992;28;84455;-95
2022/11/14 00:55:48;;;;;;;;;;;13.10;99.90;13.40;99491.00;;;;343383;28;82663;-95
2022/11/14 00:56:01;;;;;;;;;;;13.10;99.90;13.40;99491.00;;;;343614;28;82433;-95
2022/11/14 00:56:13;;;;;;;;;;;13.10;99.90;13.40;99492.00;;;;345302;28;82421;-95
2022/11/14 00:56:25;;;;;;;;;;;13.10;99.90;13.40;99490.00;;;;345164;28;83823;-96
2022/11/14 00:56:38;;;;;;;;;;;13.10;99.90;13.40;99496.00;;;;346723;28;82095;-96
2022/11/14 00:56:49;;;;;;;;;;;13.10;99.90;13.40;99495.00;;;;346428;28;84689;-95
2022/11/14 00:57:01;;;;;;;;;;;13.10;99.90;13.40;99490.00;;;;346210;28;82558;-96
2022/11/14 00:57:14;;;;;;;;;;;13.10;99.90;13.40;99490.00;;;;343475;28;85770;-95
2022/11/14 00:57:26;;;;;;;;;;;13.10;99.90;13.30;99493.00;;;;345244;28;82448;-95
2022/11/14 00:57:38;;;;;;;;;;;13.10;99.90;13.30;99498.00;;;;346384;28;84302;-96
2022/11/14 00:57:50;;;;;;;;;;;13.10;99.90;13.40;99495.00;;;;346928;28;82514;-96
2022/11/14 00:58:03;;;;;;;;;;;13.10;99.90;13.40;99492.00;;;;347865;28;84817;-95
2022/11/14 00:58:15;;;;;;;;;;;13.10;99.90;13.40;99492.00;;;;346466;28;82458;-92
2022/11/14 00:58:27;;;;;;;;;;;13.10;99.90;13.40;99497.00;;;;343361;28;84936;-96
2022/11/14 00:58:39;;;;;;;;;;;13.10;99.90;13.30;99494.00;;;;343404;28;82530;-96
2022/11/14 00:58:50;;;;;;;;;;;13.10;99.90;13.30;99491.00;;;;346313;28;84866;-96
2022/11/14 00:59:03;;;;;;;;;;;13.10;99.90;13.30;99493.00;;;;346403;28;83391;-95
2022/11/14 00:59:14;;;;;;;;;;;13.10;99.90;13.30;99488.00;;;;343675;28;82455;-96
2022/11/14 00:59:27;;;;;;;;;;;13.10;99.90;13.40;99490.00;;;;345438;28;82215;-96
2022/11/14 00:59:39;;;;;;;;;;;13.00;99.90;13.40;99489.00;;;;344880;28;85821;-96
2022/11/14 00:59:54;;;;;;;;;;;13.10;99.90;13.30;99491.00;;;;343790;28;82582;-96
2022/11/14 01:00:07;;;;;;;;;;;13.10;99.90;13.30;99494.00;;;;345028;28;85397;-96
2022/11/14 01:00:19;;;;;;;;;;;13.00;99.90;13.30;99490.00;;;;345002;28;82515;-96
2022/11/14 01:00:30;;;;;;;;;;;13.00;99.90;13.30;99489.00;;;;342250;28;85493;-95
2022/11/14 01:00:42;;;;;;;;;;;13.00;99.90;13.40;99493.00;;;;343353;28;82579;-96
2022/11/14 01:00:54;;;;;;;;;;;13.00;99.90;13.30;99487.00;;;;342214;28;83312;-96
2022/11/14 01:01:06;;;;;;;;;;;13.00;99.90;13.40;99493.00;;;;343494;28;82529;-96
2022/11/14 01:01:18;;;;;;;;;;;13.00;99.90;13.40;99500.00;;;;343393;28;85361;-96
2022/11/14 01:01:31;;;;;;;;;;;13.00;99.90;13.40;99492.00;;;;342549;28;82370;-95
2022/11/14 01:01:43;;;;;;;;;;;13.00;99.90;13.40;99494.00;;;;343875;28;85811;-95
2022/11/14 01:01:55;;;;;;;;;;;13.00;99.90;13.50;99496.00;;;;345251;28;82640;-95